Time;durP1;ratioP1;P1;durP2;ratioP2;P2;SDS_P1;SDS_P2;PMS_P1;PMS_P2;Temp;Humidity;BMP_temperature;BMP_pressure;BME280_temperature;BME280_humidity;BME280_pressure;Samples;Min_cycle;Max_cycle;Signal;HPM_P1;HPM_P2
2021/07/14 00:02:53;;;;;;;4.37;2.20;;;;;;;;;;5066102;22;20540;-69
2021/07/14 00:05:20;;;;;;;3.77;2.50;;;;;;;;;;5029347;28;20471;-70
2021/07/14 00:07:49;;;;;;;3.23;2.50;;;;;;;;;;5042143;28;20520;-69
2021/07/14 00:10:20;;;;;;;2.50;2.27;;;;;;;;;;5054902;28;20773;-69
2021/07/14 00:23:19;;;;;;;2.63;2.43;;;;;;;;;;5055339;28;20758;-68
2021/07/14 00:25:45;;;;;;;6.03;2.63;;;;;;;;;;5054851;28;20422;-69
2021/07/14 00:28:13;;;;;;;3.10;2.57;;;;;;;;;;5054951;28;20916;-70
2021/07/14 00:30:39;;;;;;;2.90;2.60;;;;;;;;;;5055018;28;20438;-69
2021/07/14 00:33:05;;;;;;;3.97;2.60;;;;;;;;;;5054869;28;20422;-69
2021/07/14 00:35:31;;;;;;;4.43;2.80;;;;;;;;;;5054857;28;20415;-68
2021/07/14 00:37:59;;;;;;;2.50;2.30;;;;;;;;;;5055036;28;20446;-69
2021/07/14 00:40:25;;;;;;;4.47;2.50;;;;;;;;;;5054639;28;20423;-68
2021/07/14 00:42:51;;;;;;;4.67;2.70;;;;;;;;;;5054263;28;20828;-69
2021/07/14 00:45:17;;;;;;;3.67;3.37;;;;;;;;;;5054644;28;20430;-68
2021/07/14 00:47:49;;;;;;;6.17;2.90;;;;;;;;;;5035070;28;20482;-69
2021/07/14 00:50:15;;;;;;;3.20;2.63;;;;;;;;;;5034863;28;20412;-69
2021/07/14 00:52:42;;;;;;;4.93;2.83;;;;;;;;;;5034819;28;20420;-69
2021/07/14 00:55:08;;;;;;;2.50;2.30;;;;;;;;;;5034146;28;20423;-68
2021/07/14 00:57:34;;;;;;;4.07;3.03;;;;;;;;;;5034452;28;20456;-69
2021/07/14 01:00:00;;;;;;;2.73;2.53;;;;;;;;;;5034445;28;20455;-69
2021/07/14 01:02:26;;;;;;;3.30;2.67;;;;;;;;;;5034159;28;20503;-69
2021/07/14 01:05:04;;;;;;;3.50;3.20;;;;;;;;;;5034450;28;20767;-70
2021/07/14 01:07:51;;;;;;;4.30;2.80;;;;;;;;;;5034403;28;20482;-69
2021/07/14 01:10:19;;;;;;;4.40;3.03;;;;;;;;;;5020263;28;20442;-70
2021/07/14 01:12:58;;;;;;;2.47;2.27;;;;;;;;;;5034160;28;20786;-68
2021/07/14 01:15:26;;;;;;;2.70;2.47;;;;;;;;;;5034301;28;20450;-69
2021/07/14 01:17:52;;;;;;;2.53;2.33;;;;;;;;;;5033852;28;20435;-69
2021/07/14 01:20:41;;;;;;;3.87;2.60;;;;;;;;;;5032779;28;20435;-69
2021/07/14 01:23:26;;;;;;;6.67;3.40;;;;;;;;;;5034561;28;20501;-70
2021/07/14 01:25:52;;;;;;;3.23;2.70;;;;;;;;;;5033379;28;20467;-70
2021/07/14 01:28:22;;;;;;;4.37;2.57;;;;;;;;;;5033935;28;20408;-69
2021/07/14 01:30:49;;;;;;;3.20;2.93;;;;;;;;;;5052071;28;20569;-69
2021/07/14 01:33:16;;;;;;;4.17;3.00;;;;;;;;;;5052706;28;20439;-69
2021/07/14 01:35:45;;;;;;;5.50;3.67;;;;;;;;;;5053739;28;20427;-68
2021/07/14 01:38:12;;;;;;;2.93;2.73;;;;;;;;;;5054042;28;20862;-69
2021/07/14 01:40:39;;;;;;;3.50;2.70;;;;;;;;;;5053124;28;20877;-69
2021/07/14 01:43:05;;;;;;;2.50;2.30;;;;;;;;;;5053618;28;20422;-69
2021/07/14 01:45:33;;;;;;;6.20;3.20;;;;;;;;;;5053326;28;20769;-69
2021/07/14 01:48:00;;;;;;;5.53;2.57;;;;;;;;;;5053557;28;20426;-69
2021/07/14 01:50:28;;;;;;;3.87;2.93;;;;;;;;;;5053406;28;20759;-68
2021/07/14 01:52:54;;;;;;;3.37;3.07;;;;;;;;;;5053474;28;20772;-68
2021/07/14 01:55:21;;;;;;;11.37;3.60;;;;;;;;;;5051926;28;20426;-69
2021/07/14 01:57:47;;;;;;;4.80;2.40;;;;;;;;;;5058440;28;20729;-69
2021/07/14 02:00:14;;;;;;;2.87;2.67;;;;;;;;;;5073309;28;20422;-69
2021/07/14 02:02:54;;;;;;;4.30;3.03;;;;;;;;;;5073109;28;20480;-69
2021/07/14 02:05:21;;;;;;;4.50;4.07;;;;;;;;;;5073361;28;20785;-69
2021/07/14 02:07:47;;;;;;;5.20;3.50;;;;;;;;;;5073484;28;20476;-69
2021/07/14 02:10:13;;;;;;;3.10;2.83;;;;;;;;;;5072888;28;20916;-70
2021/07/14 02:12:40;;;;;;;4.43;2.90;;;;;;;;;;5073193;28;20422;-68
2021/07/14 02:15:08;;;;;;;3.47;2.90;;;;;;;;;;5033955;28;20446;-69
2021/07/14 02:17:37;;;;;;;4.03;2.90;;;;;;;;;;5053235;28;20422;-69
2021/07/14 02:20:08;;;;;;;5.20;3.17;;;;;;;;;;5052845;28;20912;-68
2021/07/14 02:22:34;;;;;;;4.47;2.80;;;;;;;;;;5053378;28;20498;-69
2021/07/14 02:25:00;;;;;;;2.63;2.37;;;;;;;;;;5052567;28;20427;-68
2021/07/14 02:27:26;;;;;;;3.10;2.80;;;;;;;;;;5052297;28;20513;-69
2021/07/14 02:29:52;;;;;;;2.93;2.73;;;;;;;;;;5052912;28;20481;-70
2021/07/14 02:32:19;;;;;;;2.63;2.43;;;;;;;;;;5052580;28;20849;-69
2021/07/14 02:34:46;;;;;;;2.93;2.60;;;;;;;;;;5052649;28;20407;-69
2021/07/14 02:37:13;;;;;;;2.63;2.43;;;;;;;;;;5052413;28;20517;-70
2021/07/14 02:39:41;;;;;;;4.73;3.17;;;;;;;;;;5052958;28;20430;-70
2021/07/14 02:42:10;;;;;;;3.27;2.80;;;;;;;;;;5052399;28;20415;-68
2021/07/14 02:44:40;;;;;;;3.10;2.80;;;;;;;;;;5052489;28;20411;-69
2021/07/14 02:47:06;;;;;;;7.50;3.40;;;;;;;;;;5035386;28;21027;-69
2021/07/14 02:49:33;;;;;;;2.77;2.57;;;;;;;;;;5032447;28;20514;-71
2021/07/14 02:51:59;;;;;;;4.30;2.73;;;;;;;;;;5032668;28;20420;-69
2021/07/14 02:54:28;;;;;;;2.90;2.20;;;;;;;;;;5032473;28;20515;-69
2021/07/14 02:57:01;;;;;;;2.50;2.27;;;;;;;;;;5032209;28;20430;-70
2021/07/14 02:59:29;;;;;;;3.47;2.90;;;;;;;;;;5032334;28;20871;-69
2021/07/14 03:01:55;;;;;;;3.10;2.90;;;;;;;;;;5032047;28;20564;-68
2021/07/14 03:04:21;;;;;;;2.57;2.33;;;;;;;;;;5032539;28;20424;-70
2021/07/14 03:06:48;;;;;;;2.83;2.50;;;;;;;;;;5033504;28;20468;-70
2021/07/14 03:09:14;;;;;;;2.57;2.37;;;;;;;;;;5036469;28;20435;-69
2021/07/14 03:11:42;;;;;;;4.70;3.53;;;;;;;;;;5035710;28;20466;-69
2021/07/14 03:14:09;;;;;;;5.83;3.17;;;;;;;;;;5036335;28;20751;-69
2021/07/14 03:16:36;;;;;;;3.57;3.10;;;;;;;;;;5035762;28;20497;-69
2021/07/14 03:19:04;;;;;;;3.80;3.50;;;;;;;;;;5036719;28;20463;-70
2021/07/14 03:21:34;;;;;;;4.87;3.07;;;;;;;;;;5036092;28;20419;-69
2021/07/14 03:24:00;;;;;;;3.23;2.77;;;;;;;;;;5036317;28;20419;-70
2021/07/14 03:26:26;;;;;;;5.07;3.47;;;;;;;;;;5035498;28;20533;-70
2021/07/14 03:28:53;;;;;;;5.80;3.30;;;;;;;;;;5036323;28;20821;-69
2021/07/14 03:31:20;;;;;;;5.13;3.03;;;;;;;;;;5035642;28;20432;-69
2021/07/14 03:33:46;;;;;;;6.13;3.43;;;;;;;;;;5036741;28;20455;-69
2021/07/14 03:36:13;;;;;;;2.77;2.57;;;;;;;;;;5035913;28;20420;-68
2021/07/14 03:38:40;;;;;;;2.90;2.70;;;;;;;;;;5036200;28;20426;-69
2021/07/14 03:41:06;;;;;;;3.00;2.80;;;;;;;;;;5036078;28;20820;-69
2021/07/14 03:43:33;;;;;;;3.70;3.13;;;;;;;;;;5035951;28;20419;-70
2021/07/14 03:46:00;;;;;;;4.80;3.20;;;;;;;;;;5035870;28;20494;-70
2021/07/14 03:48:26;;;;;;;3.63;3.33;;;;;;;;;;5035829;28;20432;-70
2021/07/14 03:50:55;;;;;;;3.97;2.70;;;;;;;;;;5035931;28;20949;-69
2021/07/14 03:53:21;;;;;;;2.93;2.53;;;;;;;;;;5035620;28;20427;-70
2021/07/14 03:55:48;;;;;;;3.53;3.23;;;;;;;;;;5035502;28;20420;-69
2021/07/14 03:58:14;;;;;;;4.07;2.70;;;;;;;;;;5035780;28;20430;-69
2021/07/14 04:00:40;;;;;;;3.00;2.50;;;;;;;;;;5035703;28;20423;-69
2021/07/14 04:03:09;;;;;;;3.43;3.13;;;;;;;;;;5035443;28;20609;-70
2021/07/14 04:05:38;;;;;;;3.17;2.87;;;;;;;;;;5035795;28;20456;-68
2021/07/14 04:08:04;;;;;;;4.23;2.63;;;;;;;;;;5034565;28;20965;-68
2021/07/14 04:10:30;;;;;;;6.10;2.90;;;;;;;;;;5035658;28;20463;-69
2021/07/14 04:12:56;;;;;;;2.60;2.40;;;;;;;;;;5035900;28;20800;-68
2021/07/14 04:15:22;;;;;;;5.83;2.60;;;;;;;;;;5035397;28;20495;-68
2021/07/14 04:17:48;;;;;;;3.00;2.80;;;;;;;;;;5034730;28;20416;-69
2021/07/14 04:20:14;;;;;;;4.63;2.80;;;;;;;;;;5035302;28;20755;-70
2021/07/14 04:22:40;;;;;;;4.50;2.87;;;;;;;;;;5035783;28;20428;-69
2021/07/14 04:25:07;;;;;;;2.70;2.50;;;;;;;;;;5033868;28;20519;-70
2021/07/14 04:27:33;;;;;;;2.63;2.43;;;;;;;;;;5035554;28;20475;-68
2021/07/14 04:29:59;;;;;;;2.80;2.60;;;;;;;;;;5035353;28;20787;-68
2021/07/14 04:32:25;;;;;;;4.00;2.63;;;;;;;;;;5035235;28;20419;-69
2021/07/14 04:34:51;;;;;;;3.00;2.70;;;;;;;;;;5035139;28;20823;-68
2021/07/14 04:37:18;;;;;;;2.70;2.50;;;;;;;;;;5035410;28;20431;-69
2021/07/14 04:39:44;;;;;;;2.67;2.37;;;;;;;;;;5035241;28;20539;-69
2021/07/14 04:42:10;;;;;;;3.10;2.80;;;;;;;;;;5034833;28;20889;-70
2021/07/14 04:44:38;;;;;;;2.60;2.40;;;;;;;;;;5034954;28;20447;-69
2021/07/14 04:50:08;;;;;;;3.60;2.80;;;;;;;;;;5034930;28;20427;-70
2021/07/14 04:52:34;;;;;;;3.43;3.13;;;;;;;;;;5034640;28;20400;-69
2021/07/14 04:55:00;;;;;;;2.80;2.60;;;;;;;;;;5034905;28;20886;-70
2021/07/14 04:57:26;;;;;;;3.10;2.80;;;;;;;;;;5033874;28;20503;-67
2021/07/14 04:59:52;;;;;;;3.40;3.10;;;;;;;;;;5034129;28;20455;-69
2021/07/14 05:02:18;;;;;;;3.30;3.00;;;;;;;;;;5033852;28;20889;-70
2021/07/14 05:04:44;;;;;;;4.00;3.30;;;;;;;;;;5034203;28;20412;-69
2021/07/14 05:07:11;;;;;;;4.13;2.67;;;;;;;;;;5034775;28;20811;-68
2021/07/14 05:09:37;;;;;;;3.43;2.90;;;;;;;;;;5034380;28;20408;-68
2021/07/14 05:12:03;;;;;;;3.07;2.77;;;;;;;;;;5033934;28;20435;-68
2021/07/14 05:14:29;;;;;;;2.47;2.27;;;;;;;;;;5034170;28;20411;-69
2021/07/14 05:19:59;;;;;;;3.97;3.53;;;;;;;;;;5034241;28;20462;-69
2021/07/14 05:22:25;;;;;;;2.87;2.67;;;;;;;;;;5034061;28;20790;-69
2021/07/14 05:24:51;;;;;;;3.00;2.67;;;;;;;;;;5034169;28;20500;-68
2021/07/14 05:27:17;;;;;;;3.77;3.00;;;;;;;;;;5033883;28;21010;-68
2021/07/14 05:29:43;;;;;;;2.90;2.47;;;;;;;;;;5033971;28;20415;-69
2021/07/14 05:35:12;;;;;;;3.40;3.10;;;;;;;;;;5033807;28;20475;-68
2021/07/14 05:37:38;;;;;;;4.80;3.70;;;;;;;;;;5034010;28;21054;-68
2021/07/14 05:40:05;;;;;;;3.60;3.07;;;;;;;;;;5033869;28;20507;-69
2021/07/14 05:42:31;;;;;;;4.73;2.80;;;;;;;;;;5033767;28;20883;-68
2021/07/14 05:44:57;;;;;;;3.20;2.90;;;;;;;;;;5033658;28;20419;-69
2021/07/14 05:50:27;;;;;;;5.13;3.23;;;;;;;;;;5033376;28;20522;-68
2021/07/14 05:52:53;;;;;;;4.33;3.60;;;;;;;;;;5033294;28;20416;-68
2021/07/14 05:55:19;;;;;;;4.93;3.20;;;;;;;;;;5033114;28;20431;-69
2021/07/14 05:57:45;;;;;;;3.90;3.03;;;;;;;;;;5033090;28;20428;-68
2021/07/14 06:00:12;;;;;;;3.30;3.10;;;;;;;;;;5033153;28;20412;-69
2021/07/14 06:02:38;;;;;;;3.47;2.90;;;;;;;;;;5032830;28;20782;-68
2021/07/14 06:05:05;;;;;;;4.00;3.13;;;;;;;;;;5031511;28;20428;-69
2021/07/14 06:07:31;;;;;;;5.03;3.60;;;;;;;;;;5032980;28;20479;-69
2021/07/14 06:09:57;;;;;;;4.40;3.70;;;;;;;;;;5032938;28;20424;-69
2021/07/14 06:12:23;;;;;;;3.27;2.97;;;;;;;;;;5032455;28;20837;-69
2021/07/14 06:14:50;;;;;;;3.23;2.80;;;;;;;;;;5032888;28;20501;-68
2021/07/14 06:20:20;;;;;;;3.80;3.03;;;;;;;;;;5032777;28;20486;-68
2021/07/14 06:22:46;;;;;;;3.53;2.63;;;;;;;;;;5032757;28;20458;-67
2021/07/14 06:25:12;;;;;;;3.30;3.00;;;;;;;;;;5032944;28;20446;-68
2021/07/14 06:27:39;;;;;;;3.17;2.93;;;;;;;;;;5032429;28;20459;-67
2021/07/14 06:30:09;;;;;;;5.23;3.10;;;;;;;;;;5032786;28;20416;-67
2021/07/14 06:35:38;;;;;;;3.50;2.70;;;;;;;;;;5032259;28;20411;-69
2021/07/14 06:38:04;;;;;;;5.77;3.23;;;;;;;;;;5032140;28;20420;-68
2021/07/14 06:40:32;;;;;;;4.80;2.70;;;;;;;;;;5032167;28;20770;-67
2021/07/14 06:43:00;;;;;;;5.57;3.40;;;;;;;;;;5031970;28;20918;-67
2021/07/14 06:45:27;;;;;;;6.83;3.03;;;;;;;;;;5031866;28;20423;-69
2021/07/14 06:50:57;;;;;;;6.13;3.00;;;;;;;;;;5031080;28;20474;-68
2021/07/14 06:53:23;;;;;;;6.53;3.23;;;;;;;;;;5031315;28;20446;-69
2021/07/14 06:55:49;;;;;;;2.60;2.40;;;;;;;;;;5029644;28;20435;-68
2021/07/14 06:58:15;;;;;;;5.77;2.93;;;;;;;;;;5031509;28;20454;-68
2021/07/14 07:00:41;;;;;;;3.07;2.73;;;;;;;;;;5031484;28;20456;-67
2021/07/14 07:06:10;;;;;;;2.77;2.53;;;;;;;;;;5031999;28;20806;-68
2021/07/14 07:08:36;;;;;;;3.03;2.83;;;;;;;;;;5032073;28;20435;-69
2021/07/14 07:11:03;;;;;;;2.97;2.77;;;;;;;;;;5031934;28;20424;-70
2021/07/14 07:13:29;;;;;;;3.40;2.77;;;;;;;;;;5032710;28;20465;-68
2021/07/14 07:15:55;;;;;;;4.50;3.13;;;;;;;;;;5032619;28;20408;-69
2021/07/14 07:21:25;;;;;;;4.60;3.07;;;;;;;;;;5031577;28;20467;-69
2021/07/14 07:23:52;;;;;;;3.37;2.93;;;;;;;;;;5031847;28;20408;-69
2021/07/14 07:26:18;;;;;;;2.87;2.63;;;;;;;;;;5031397;28;20566;-68
2021/07/14 07:28:44;;;;;;;3.93;2.93;;;;;;;;;;5031555;28;20511;-69
2021/07/14 07:31:10;;;;;;;3.60;2.53;;;;;;;;;;5031381;28;20501;-69
2021/07/14 07:33:37;;;;;;;3.57;2.80;;;;;;;;;;5031568;28;20910;-69
2021/07/14 07:36:03;;;;;;;2.87;2.27;;;;;;;;;;5031512;28;20420;-70
2021/07/14 07:38:29;;;;;;;3.50;3.20;;;;;;;;;;5032141;28;20718;-69
2021/07/14 07:40:57;;;;;;;3.73;2.90;;;;;;;;;;5029517;28;20416;-70
2021/07/14 07:43:24;;;;;;;3.70;3.07;;;;;;;;;;5028263;28;20419;-69
2021/07/14 07:45:50;;;;;;;3.30;3.10;;;;;;;;;;5030353;28;20412;-69
2021/07/14 07:51:19;;;;;;;6.87;3.30;;;;;;;;;;5029991;28;20470;-71
2021/07/14 07:53:46;;;;;;;4.23;2.83;;;;;;;;;;5032549;28;20424;-67
2021/07/14 07:56:12;;;;;;;6.60;2.77;;;;;;;;;;5032912;28;20416;-69
2021/07/14 07:58:38;;;;;;;5.77;3.70;;;;;;;;;;5032573;28;20423;-69
2021/07/14 08:01:05;;;;;;;3.03;2.50;;;;;;;;;;5031043;28;20875;-69
2021/07/14 08:06:34;;;;;;;5.93;2.80;;;;;;;;;;5033277;28;20906;-69
2021/07/14 08:09:01;;;;;;;3.57;3.27;;;;;;;;;;5031841;28;20489;-69
2021/07/14 08:11:27;;;;;;;6.57;3.13;;;;;;;;;;5032207;28;20423;-71
2021/07/14 08:13:55;;;;;;;4.30;3.40;;;;;;;;;;5033212;28;20913;-72
2021/07/14 08:16:24;;;;;;;2.83;2.63;;;;;;;;;;5032951;28;20447;-70
2021/07/14 08:21:53;;;;;;;3.63;2.50;;;;;;;;;;5028925;28;20419;-69
2021/07/14 08:24:19;;;;;;;3.90;3.50;;;;;;;;;;5027443;28;20785;-67
2021/07/14 08:26:45;;;;;;;4.80;2.97;;;;;;;;;;5025310;28;20506;-67
2021/07/14 08:29:11;;;;;;;5.63;2.93;;;;;;;;;;5026375;28;20451;-67
2021/07/14 08:31:37;;;;;;;3.13;2.53;;;;;;;;;;5026403;28;20486;-69
2021/07/14 08:37:07;;;;;;;3.30;3.00;;;;;;;;;;5028885;28;20417;-72
2021/07/14 08:39:33;;;;;;;4.03;2.57;;;;;;;;;;5031940;28;20431;-66
2021/07/14 08:42:01;;;;;;;3.70;2.70;;;;;;;;;;5032699;28;21006;-67
2021/07/14 08:44:27;;;;;;;2.67;2.47;;;;;;;;;;5032679;28;20439;-68
2021/07/14 08:46:54;;;;;;;2.67;2.47;;;;;;;;;;5032689;28;20800;-66
2021/07/14 08:52:24;;;;;;;3.20;2.90;;;;;;;;;;5032460;28;20410;-69
2021/07/14 08:54:50;;;;;;;3.43;2.60;;;;;;;;;;5032617;28;20470;-68
2021/07/14 08:57:19;;;;;;;3.93;3.27;;;;;;;;;;5032129;28;20423;-68
2021/07/14 08:59:45;;;;;;;3.07;2.70;;;;;;;;;;5032755;28;20407;-68
2021/07/14 09:02:13;;;;;;;3.87;3.10;;;;;;;;;;5031872;28;20459;-67
2021/07/14 09:04:39;;;;;;;4.23;3.00;;;;;;;;;;5031838;28;20487;-69
2021/07/14 09:07:06;;;;;;;3.57;3.27;;;;;;;;;;5030841;28;20482;-69
2021/07/14 09:09:32;;;;;;;4.07;3.10;;;;;;;;;;5031612;28;20412;-69
2021/07/14 09:11:59;;;;;;;3.30;3.00;;;;;;;;;;5031884;28;20507;-68
2021/07/14 09:14:25;;;;;;;4.00;2.70;;;;;;;;;;5032441;28;20412;-67
2021/07/14 09:16:51;;;;;;;3.43;3.13;;;;;;;;;;5031865;28;20418;-68
2021/07/14 09:22:25;;;;;;;6.40;5.40;;;;;;;;;;5031989;28;20477;-68
2021/07/14 09:24:58;;;;;;;4.70;4.30;;;;;;;;;;5032062;28;20753;-70
2021/07/14 09:27:35;;;;;;;3.77;3.47;;;;;;;;;;5030133;28;20822;-69
2021/07/14 09:30:10;;;;;;;4.20;3.37;;;;;;;;;;5032174;28;20414;-70
2021/07/14 09:32:43;;;;;;;9.50;3.77;;;;;;;;;;5031808;28;20913;-69
2021/07/14 09:35:09;;;;;;;4.20;3.77;;;;;;;;;;5032358;28;20465;-70
2021/07/14 09:37:39;;;;;;;5.03;3.23;;;;;;;;;;5032360;28;20431;-69
2021/07/14 09:40:23;;;;;;;6.40;5.90;;;;;;;;;;5031698;28;20507;-68
2021/07/14 09:42:51;;;;;;;6.93;3.67;;;;;;;;;;5031444;28;20420;-69
2021/07/14 09:45:34;;;;;;;7.03;3.53;;;;;;;;;;5031433;28;20431;-69
2021/07/14 09:48:00;;;;;;;4.13;3.70;;;;;;;;;;5031214;28;20475;-69
2021/07/14 09:50:33;;;;;;;11.83;3.47;;;;;;;;;;5031728;28;20482;-68
2021/07/14 09:53:00;;;;;;;4.40;3.40;;;;;;;;;;5031418;28;20602;-69
2021/07/14 09:55:30;;;;;;;6.13;3.40;;;;;;;;;;5031459;28;20416;-68
2021/07/14 09:58:12;;;;;;;3.70;3.07;;;;;;;;;;5031432;28;20423;-70
2021/07/14 10:01:04;;;;;;;3.90;3.30;;;;;;;;;;5031327;28;20441;-70
2021/07/14 10:03:33;;;;;;;3.20;2.90;;;;;;;;;;5027343;28;20456;-69
2021/07/14 10:06:01;;;;;;;4.40;3.30;;;;;;;;;;5031153;28;20499;-69
2021/07/14 10:08:27;;;;;;;3.80;3.50;;;;;;;;;;5031619;28;20420;-69
2021/07/14 10:11:07;;;;;;;3.60;2.90;;;;;;;;;;5029726;28;20452;-68
2021/07/14 10:13:33;;;;;;;3.47;3.17;;;;;;;;;;5031073;28;20434;-69
2021/07/14 10:16:02;;;;;;;3.70;3.03;;;;;;;;;;5030430;28;20506;-68
2021/07/14 10:18:29;;;;;;;3.33;2.80;;;;;;;;;;5031162;28;20448;-69
2021/07/14 10:20:55;;;;;;;3.40;2.70;;;;;;;;;;5031225;28;20407;-68
2021/07/14 10:23:22;;;;;;;3.60;3.30;;;;;;;;;;5031475;28;20424;-68
2021/07/14 10:25:48;;;;;;;6.13;2.53;;;;;;;;;;5031145;28;20416;-67
2021/07/14 10:28:20;;;;;;;4.40;2.67;;;;;;;;;;5030805;28;20988;-68
2021/07/14 10:30:48;;;;;;;3.53;2.87;;;;;;;;;;5030794;28;20792;-70
2021/07/14 10:33:16;;;;;;;5.80;2.50;;;;;;;;;;5029268;28;20450;-69
2021/07/14 10:35:44;;;;;;;3.07;2.23;;;;;;;;;;5030680;28;20759;-67
2021/07/14 10:38:21;;;;;;;2.97;2.67;;;;;;;;;;5030988;28;20778;-68
2021/07/14 10:40:48;;;;;;;2.60;2.40;;;;;;;;;;5030656;28;20423;-69
2021/07/14 10:43:15;;;;;;;2.30;2.10;;;;;;;;;;5031179;28;20940;-69
2021/07/14 10:45:42;;;;;;;2.87;2.67;;;;;;;;;;5030612;28;20510;-68
2021/07/14 10:48:08;;;;;;;2.50;2.30;;;;;;;;;;5030704;28;20471;-69
2021/07/14 10:53:39;;;;;;;2.67;2.00;;;;;;;;;;5030963;28;20430;-69
2021/07/14 10:56:06;;;;;;;1.60;1.50;;;;;;;;;;5030642;28;20474;-68
2021/07/14 10:58:33;;;;;;;2.00;1.80;;;;;;;;;;5030079;28;20412;-69
2021/07/14 11:00:59;;;;;;;2.63;1.73;;;;;;;;;;5030664;28;20404;-70
2021/07/14 11:03:37;;;;;;;2.43;2.00;;;;;;;;;;5030624;28;20486;-70
2021/07/14 11:06:04;;;;;;;2.20;1.60;;;;;;;;;;5030746;28;20412;-68
2021/07/14 11:08:41;;;;;;;3.60;1.90;;;;;;;;;;5030352;28;20423;-69
2021/07/14 11:11:07;;;;;;;2.30;2.20;;;;;;;;;;5030582;28;20408;-68
2021/07/14 11:13:34;;;;;;;3.13;1.60;;;;;;;;;;5029996;28;20767;-68
2021/07/14 11:16:19;;;;;;;1.30;1.20;;;;;;;;;;5030284;28;20408;-69
2021/07/14 11:18:46;;;;;;;1.60;1.50;;;;;;;;;;5029192;28;20462;-70
2021/07/14 11:21:32;;;;;;;2.37;2.17;;;;;;;;;;5028961;28;20430;-70
2021/07/14 11:23:58;;;;;;;1.90;1.33;;;;;;;;;;5028647;28;20424;-70
2021/07/14 11:26:26;;;;;;;1.67;1.40;;;;;;;;;;5025628;28;20469;-70
2021/07/14 11:29:11;;;;;;;1.83;1.40;;;;;;;;;;5032345;28;20445;-68
2021/07/14 11:31:42;;;;;;;1.70;1.60;;;;;;;;;;5033176;28;20607;-71
2021/07/14 11:34:27;;;;;;;3.33;1.63;;;;;;;;;;5034287;28;20841;-69
2021/07/14 11:36:53;;;;;;;1.53;1.43;;;;;;;;;;5033017;28;20632;-68
2021/07/14 11:39:29;;;;;;;1.40;1.30;;;;;;;;;;5032751;28;20799;-69
2021/07/14 11:42:18;;;;;;;5.23;1.40;;;;;;;;;;5034045;28;20411;-68
2021/07/14 11:44:53;;;;;;;1.60;1.50;;;;;;;;;;5023898;28;20498;-70
2021/07/14 11:47:38;;;;;;;1.10;1.00;;;;;;;;;;5032629;28;20557;-69
2021/07/14 11:50:05;;;;;;;1.20;1.10;;;;;;;;;;5032992;28;20432;-68
2021/07/14 11:52:42;;;;;;;1.30;1.00;;;;;;;;;;5033864;28;20903;-70
2021/07/14 11:55:23;;;;;;;1.13;1.00;;;;;;;;;;5033900;28;20952;-70
2021/07/14 11:57:49;;;;;;;1.07;1.03;;;;;;;;;;5034074;28;20447;-69
2021/07/14 12:00:15;;;;;;;1.13;1.03;;;;;;;;;;5032356;28;20450;-68
2021/07/14 12:02:57;;;;;;;1.40;1.30;;;;;;;;;;5033970;28;20979;-69
2021/07/14 12:05:29;;;;;;;1.60;1.50;;;;;;;;;;5035223;28;20435;-69
2021/07/14 12:08:07;;;;;;;2.07;1.10;;;;;;;;;;5035181;28;20858;-70
2021/07/14 12:10:33;;;;;;;1.40;1.30;;;;;;;;;;5034477;28;20882;-69
2021/07/14 12:13:00;;;;;;;1.50;1.40;;;;;;;;;;5034976;28;20415;-69
2021/07/14 12:15:26;;;;;;;1.13;1.10;;;;;;;;;;5034632;28;20400;-69
2021/07/14 12:17:52;;;;;;;1.20;1.10;;;;;;;;;;5034464;28;20419;-70
2021/07/14 12:20:18;;;;;;;1.37;1.27;;;;;;;;;;5031576;28;20407;-69
2021/07/14 12:22:44;;;;;;;1.43;1.33;;;;;;;;;;5033213;28;20822;-69
2021/07/14 12:25:14;;;;;;;1.37;1.27;;;;;;;;;;5032669;28;20412;-69
2021/07/14 12:27:45;;;;;;;1.50;1.40;;;;;;;;;;5033000;28;20467;-69
2021/07/14 12:30:12;;;;;;;2.90;1.30;;;;;;;;;;5030239;28;20411;-67
2021/07/14 12:32:41;;;;;;;0.90;0.90;;;;;;;;;;5028842;28;20481;-69
2021/07/14 12:35:09;;;;;;;1.30;1.20;;;;;;;;;;5027576;28;20412;-69
2021/07/14 12:37:40;;;;;;;3.43;1.53;;;;;;;;;;5026971;28;20428;-70
2021/07/14 12:40:07;;;;;;;3.23;1.27;;;;;;;;;;5027063;28;20942;-68
2021/07/14 12:42:33;;;;;;;1.10;1.00;;;;;;;;;;5027903;28;20439;-68
2021/07/14 12:44:59;;;;;;;1.03;1.03;;;;;;;;;;5026248;28;20513;-71
2021/07/14 12:47:25;;;;;;;1.87;1.10;;;;;;;;;;5031554;28;20459;-69
2021/07/14 12:49:52;;;;;;;1.20;1.10;;;;;;;;;;5032145;28;20411;-68
2021/07/14 12:52:20;;;;;;;1.00;0.90;;;;;;;;;;5029611;28;20424;-69
2021/07/14 12:54:47;;;;;;;2.90;0.93;;;;;;;;;;5030471;28;20408;-72
2021/07/14 12:57:14;;;;;;;1.40;1.30;;;;;;;;;;5030175;28;20427;-69
2021/07/14 12:59:55;;;;;;;2.20;1.20;;;;;;;;;;5030583;28;20800;-68
2021/07/14 13:02:22;;;;;;;0.97;0.87;;;;;;;;;;5030554;28;20495;-68
2021/07/14 13:04:49;;;;;;;1.77;1.10;;;;;;;;;;5030433;28;20412;-69
2021/07/14 13:07:26;;;;;;;0.93;0.90;;;;;;;;;;5027400;28;20958;-68
2021/07/14 13:09:53;;;;;;;2.77;1.20;;;;;;;;;;5461887;22;21020;-69
2021/07/14 13:12:19;;;;;;;1.30;1.20;;;;;;;;;;5054654;28;20485;-71
2021/07/14 13:14:46;;;;;;;1.10;0.87;;;;;;;;;;5063540;28;21958;-69
2021/07/14 13:17:23;;;;;;;1.70;1.60;;;;;;;;;;5069223;28;20493;-70
2021/07/14 13:19:49;;;;;;;3.27;1.67;;;;;;;;;;5046538;28;21351;-68
2021/07/14 13:22:15;;;;;;;0.80;0.80;;;;;;;;;;5072280;28;20430;-67
2021/07/14 13:24:41;;;;;;;0.80;0.80;;;;;;;;;;5072001;28;20786;-70
2021/07/14 13:27:07;;;;;;;0.87;0.87;;;;;;;;;;5073808;28;20473;-70
2021/07/14 13:29:33;;;;;;;1.30;1.20;;;;;;;;;;5074408;28;20444;-70
2021/07/14 13:32:11;;;;;;;1.33;1.17;;;;;;;;;;5070919;28;20462;-71
2021/07/14 13:34:39;;;;;;;0.97;0.83;;;;;;;;;;5069299;28;20541;-71
2021/07/14 13:37:05;;;;;;;1.13;0.70;;;;;;;;;;5069645;28;20585;-70
2021/07/14 13:39:32;;;;;;;1.10;1.10;;;;;;;;;;5069799;28;20489;-71
2021/07/14 13:41:59;;;;;;;1.40;0.90;;;;;;;;;;5068700;28;20453;-70
2021/07/14 13:44:27;;;;;;;0.80;0.80;;;;;;;;;;5067866;28;20495;-71
2021/07/14 13:46:57;;;;;;;1.30;1.10;;;;;;;;;;5050512;28;20975;-70
2021/07/14 13:49:26;;;;;;;1.77;0.90;;;;;;;;;;5067420;28;20434;-70
2021/07/14 13:51:59;;;;;;;2.40;1.07;;;;;;;;;;5062988;28;20438;-69
2021/07/14 13:54:25;;;;;;;3.30;0.90;;;;;;;;;;5062688;28;20780;-68
2021/07/14 13:57:03;;;;;;;0.80;0.80;;;;;;;;;;5060612;28;20433;-69
2021/07/14 13:59:31;;;;;;;1.07;0.83;;;;;;;;;;5063677;28;20456;-68
2021/07/14 14:02:12;;;;;;;1.43;1.00;;;;;;;;;;5044621;28;20437;-67
2021/07/14 14:04:41;;;;;;;0.70;0.70;;;;;;;;;;5063015;28;20452;-68
2021/07/14 14:07:08;;;;;;;1.90;0.97;;;;;;;;;;5063075;28;20473;-68
2021/07/14 14:09:34;;;;;;;1.13;1.03;;;;;;;;;;5061581;28;20433;-68
2021/07/14 14:12:16;;;;;;;1.50;1.23;;;;;;;;;;5061728;28;20619;-66
2021/07/14 14:14:42;;;;;;;0.70;0.70;;;;;;;;;;5064476;28;21574;-70
2021/07/14 14:17:08;;;;;;;0.80;0.80;;;;;;;;;;5064120;28;20446;-68
2021/07/14 14:19:34;;;;;;;1.20;1.10;;;;;;;;;;5065451;28;20418;-67
2021/07/14 14:22:01;;;;;;;1.30;1.20;;;;;;;;;;5064697;28;20464;-68
2021/07/14 14:24:29;;;;;;;1.03;0.80;;;;;;;;;;5065257;28;20425;-69
2021/07/14 14:27:01;;;;;;;1.47;1.00;;;;;;;;;;5066500;28;20954;-68
2021/07/14 14:29:27;;;;;;;0.70;0.70;;;;;;;;;;5068745;28;20430;-69
2021/07/14 14:31:53;;;;;;;1.27;1.17;;;;;;;;;;5052088;28;20524;-69
2021/07/14 14:34:19;;;;;;;0.97;0.87;;;;;;;;;;5068675;28;20433;-70
2021/07/14 14:36:45;;;;;;;0.80;0.80;;;;;;;;;;5068806;28;20527;-70
2021/07/14 14:39:12;;;;;;;1.33;1.23;;;;;;;;;;5067757;28;20418;-69
2021/07/14 14:41:38;;;;;;;2.83;1.17;;;;;;;;;;5049930;28;20462;-68
2021/07/14 14:44:05;;;;;;;1.20;1.10;;;;;;;;;;5066690;28;20768;-68
2021/07/14 14:46:31;;;;;;;0.80;0.80;;;;;;;;;;5068240;28;20461;-70
2021/07/14 14:48:57;;;;;;;0.90;0.70;;;;;;;;;;5065827;28;20532;-68
2021/07/14 14:51:23;;;;;;;1.77;0.90;;;;;;;;;;5067971;28;20430;-68
2021/07/14 14:53:50;;;;;;;2.70;1.20;;;;;;;;;;5068679;28;20880;-68
2021/07/14 14:56:16;;;;;;;0.83;0.77;;;;;;;;;;5067762;28;20504;-69
2021/07/14 14:58:42;;;;;;;2.03;1.00;;;;;;;;;;5068243;28;20529;-68
2021/07/14 15:01:09;;;;;;;6.13;0.83;;;;;;;;;;5065137;28;20442;-69
2021/07/14 15:03:35;;;;;;;0.93;0.80;;;;;;;;;;5047351;28;20446;-70
2021/07/14 15:06:01;;;;;;;1.40;1.10;;;;;;;;;;5049108;28;20468;-69
2021/07/14 15:08:27;;;;;;;1.30;1.00;;;;;;;;;;5049471;28;20467;-70
2021/07/14 15:10:53;;;;;;;4.03;1.00;;;;;;;;;;5049317;28;20476;-69
2021/07/14 15:13:19;;;;;;;0.77;0.77;;;;;;;;;;5067927;28;20914;-69
2021/07/14 15:15:46;;;;;;;0.73;0.73;;;;;;;;;;5073517;28;20842;-68
2021/07/14 15:18:17;;;;;;;0.80;0.70;;;;;;;;;;5046860;28;20434;-68
2021/07/14 15:20:44;;;;;;;1.10;0.80;;;;;;;;;;5051554;28;20495;-69
2021/07/14 15:23:12;;;;;;;1.07;0.80;;;;;;;;;;5067901;28;20513;-71
2021/07/14 15:30:58;;;;;;;3.30;0.90;;;;;;;;;;5058619;28;20831;-67
2021/07/14 15:33:25;;;;;;;1.03;0.70;;;;;;;;;;5061762;28;20923;-69
2021/07/14 15:35:50;;;;;;;0.60;0.60;;;;;;;;;;5065361;28;20991;-68
2021/07/14 15:38:16;;;;;;;1.80;0.80;;;;;;;;;;5049521;28;20528;-69
2021/07/14 15:40:42;;;;;;;0.60;0.50;;;;;;;;;;5051649;28;20441;-69
2021/07/14 15:43:09;;;;;;;1.10;0.70;;;;;;;;;;5051025;28;20446;-69
2021/07/14 15:45:36;;;;;;;1.13;1.03;;;;;;;;;;5058614;28;20505;-68
2021/07/14 15:48:02;;;;;;;2.40;0.87;;;;;;;;;;5061676;28;20486;-69
2021/07/14 15:50:28;;;;;;;1.47;1.27;;;;;;;;;;5055581;28;20434;-68
2021/07/14 15:52:54;;;;;;;0.83;0.83;;;;;;;;;;5060806;28;20437;-69
2021/07/14 15:55:22;;;;;;;0.90;0.90;;;;;;;;;;5069460;28;20928;-68